sensor_id;sensor_type;location;lat;lon;timestamp;temperature;humidity
19728;DHT22;10015;52.530;13.390;2023-04-24T00:00:22;13.80;99.90
19728;DHT22;10015;52.530;13.390;2023-04-24T00:02:48;13.60;99.90
19728;DHT22;10015;52.530;13.390;2023-04-24T00:05:15;13.70;99.90
19728;DHT22;10015;52.530;13.390;2023-04-24T00:07:42;13.60;99.90
19728;DHT22;10015;52.530;13.390;2023-04-24T00:10:08;13.80;99.90
19728;DHT22;10015;52.530;13.390;2023-04-24T00:12:35;13.80;99.90
19728;DHT22;10015;52.530;13.390;2023-04-24T00:15:01;13.80;99.90
19728;DHT22;10015;52.530;13.390;2023-04-24T00:17:27;13.90;99.90
19728;DHT22;10015;52.530;13.390;2023-04-24T00:19:53;13.90;99.90
19728;DHT22;10015;52.530;13.390;2023-04-24T00:22:28;14.00;99.90
19728;DHT22;10015;52.530;13.390;2023-04-24T00:24:54;13.80;99.90
19728;DHT22;10015;52.530;13.390;2023-04-24T00:27:20;13.80;99.90
19728;DHT22;10015;52.530;13.390;2023-04-24T00:29:47;13.60;99.90
19728;DHT22;10015;52.530;13.390;2023-04-24T00:32:13;13.50;99.90
19728;DHT22;10015;52.530;13.390;2023-04-24T00:34:40;13.50;99.90
19728;DHT22;10015;52.530;13.390;2023-04-24T00:37:06;13.40;99.90
19728;DHT22;10015;52.530;13.390;2023-04-24T00:39:32;13.40;99.90
19728;DHT22;10015;52.530;13.390;2023-04-24T00:41:58;13.40;99.90
19728;DHT22;10015;52.530;13.390;2023-04-24T00:44:24;13.20;99.90
19728;DHT22;10015;52.530;13.390;2023-04-24T00:46:50;13.20;99.90
19728;DHT22;10015;52.530;13.390;2023-04-24T00:49:23;13.10;99.90
19728;DHT22;10015;52.530;13.390;2023-04-24T00:51:50;13.10;99.90
19728;DHT22;10015;52.530;13.390;2023-04-24T00:54:17;13.10;99.90
19728;DHT22;10015;52.530;13.390;2023-04-24T00:56:44;13.20;99.90
19728;DHT22;10015;52.530;13.390;2023-04-24T00:59:16;13.20;99.90
19728;DHT22;10015;52.530;13.390;2023-04-24T01:01:43;13.10;99.90
19728;DHT22;10015;52.530;13.390;2023-04-24T01:04:11;13.10;99.90
19728;DHT22;10015;52.530;13.390;2023-04-24T01:06:43;13.00;99.90
19728;DHT22;10015;52.530;13.390;2023-04-24T01:09:10;13.10;99.90
19728;DHT22;10015;52.530;13.390;2023-04-24T01:11:37;13.00;99.90
19728;DHT22;10015;52.530;13.390;2023-04-24T01:14:04;13.10;99.90
19728;DHT22;10015;52.530;13.390;2023-04-24T01:16:30;12.90;99.90
19728;DHT22;10015;52.530;13.390;2023-04-24T01:18:56;12.90;99.90
19728;DHT22;10015;52.530;13.390;2023-04-24T01:21:23;12.80;99.90
19728;DHT22;10015;52.530;13.390;2023-04-24T01:23:53;12.90;99.90
19728;DHT22;10015;52.530;13.390;2023-04-24T01:26:21;12.90;99.90
19728;DHT22;10015;52.530;13.390;2023-04-24T01:28:47;12.80;99.90
19728;DHT22;10015;52.530;13.390;2023-04-24T01:31:14;12.90;99.90
19728;DHT22;10015;52.530;13.390;2023-04-24T01:33:41;12.80;99.90
19728;DHT22;10015;52.530;13.390;2023-04-24T01:36:10;12.90;99.90
19728;DHT22;10015;52.530;13.390;2023-04-24T01:38:37;12.80;99.90
19728;DHT22;10015;52.530;13.390;2023-04-24T01:41:04;12.70;99.90
19728;DHT22;10015;52.530;13.390;2023-04-24T01:43:30;12.70;99.90
19728;DHT22;10015;52.530;13.390;2023-04-24T01:45:57;12.70;99.90
19728;DHT22;10015;52.530;13.390;2023-04-24T01:48:23;12.70;99.90
19728;DHT22;10015;52.530;13.390;2023-04-24T01:50:49;12.70;99.90
19728;DHT22;10015;52.530;13.390;2023-04-24T01:53:15;12.70;99.90
19728;DHT22;10015;52.530;13.390;2023-04-24T01:55:42;12.80;99.90
19728;DHT22;10015;52.530;13.390;2023-04-24T01:58:08;12.80;99.90
19728;DHT22;10015;52.530;13.390;2023-04-24T02:00:34;12.80;99.90
19728;DHT22;10015;52.530;13.390;2023-04-24T02:03:00;12.70;99.90
19728;DHT22;10015;52.530;13.390;2023-04-24T02:05:27;12.70;99.90
19728;DHT22;10015;52.530;13.390;2023-04-24T02:07:55;12.60;99.90
19728;DHT22;10015;52.530;13.390;2023-04-24T02:10:21;12.60;99.90
19728;DHT22;10015;52.530;13.390;2023-04-24T02:12:47;12.50;99.90
19728;DHT22;10015;52.530;13.390;2023-04-24T02:15:13;12.60;99.90
19728;DHT22;10015;52.530;13.390;2023-04-24T02:17:39;12.80;99.90
19728;DHT22;10015;52.530;13.390;2023-04-24T02:20:06;12.90;99.90
19728;DHT22;10015;52.530;13.390;2023-04-24T02:22:32;13.20;99.90
19728;DHT22;10015;52.530;13.390;2023-04-24T02:25:01;13.20;99.90
19728;DHT22;10015;52.530;13.390;2023-04-24T02:27:29;13.20;99.90
19728;DHT22;10015;52.530;13.390;2023-04-24T02:29:55;13.20;99.90
19728;DHT22;10015;52.530;13.390;2023-04-24T02:32:21;13.10;99.90
19728;DHT22;10015;52.530;13.390;2023-04-24T02:34:46;13.10;99.90
19728;DHT22;10015;52.530;13.390;2023-04-24T02:37:12;13.10;99.90
19728;DHT22;10015;52.530;13.390;2023-04-24T02:39:38;13.30;99.90
19728;DHT22;10015;52.530;13.390;2023-04-24T02:42:04;13.30;99.90
19728;DHT22;10015;52.530;13.390;2023-04-24T02:44:31;13.30;99.90
19728;DHT22;10015;52.530;13.390;2023-04-24T02:46:56;13.40;99.90
19728;DHT22;10015;52.530;13.390;2023-04-24T02:49:22;13.40;99.90
19728;DHT22;10015;52.530;13.390;2023-04-24T02:51:48;13.40;99.90
19728;DHT22;10015;52.530;13.390;2023-04-24T02:54:14;13.50;99.90
19728;DHT22;10015;52.530;13.390;2023-04-24T02:56:40;13.30;99.90
19728;DHT22;10015;52.530;13.390;2023-04-24T02:59:08;13.00;99.90
19728;DHT22;10015;52.530;13.390;2023-04-24T03:01:34;12.90;99.90
19728;DHT22;10015;52.530;13.390;2023-04-24T03:04:00;12.90;99.90
19728;DHT22;10015;52.530;13.390;2023-04-24T03:06:26;13.00;99.90
19728;DHT22;10015;52.530;13.390;2023-04-24T03:08:52;12.90;99.90
19728;DHT22;10015;52.530;13.390;2023-04-24T03:11:19;13.10;99.90
19728;DHT22;10015;52.530;13.390;2023-04-24T03:13:45;13.10;99.90
19728;DHT22;10015;52.530;13.390;2023-04-24T03:16:11;13.00;99.90
19728;DHT22;10015;52.530;13.390;2023-04-24T03:18:37;13.00;99.90
19728;DHT22;10015;52.530;13.390;2023-04-24T03:21:05;13.10;99.90
19728;DHT22;10015;52.530;13.390;2023-04-24T03:23:31;13.00;99.90
19728;DHT22;10015;52.530;13.390;2023-04-24T03:25:58;13.00;99.90
19728;DHT22;10015;52.530;13.390;2023-04-24T03:28:24;13.00;99.90
19728;DHT22;10015;52.530;13.390;2023-04-24T03:31:03;13.10;99.90
19728;DHT22;10015;52.530;13.390;2023-04-24T03:33:33;13.00;99.90
19728;DHT22;10015;52.530;13.390;2023-04-24T03:36:00;13.10;99.90
19728;DHT22;10015;52.530;13.390;2023-04-24T03:38:33;13.20;99.90
19728;DHT22;10015;52.530;13.390;2023-04-24T03:41:22;13.10;99.90
19728;DHT22;10015;52.530;13.390;2023-04-24T03:43:52;13.10;99.90
19728;DHT22;10015;52.530;13.390;2023-04-24T03:46:19;13.10;99.90
19728;DHT22;10015;52.530;13.390;2023-04-24T03:48:52;13.40;99.90
19728;DHT22;10015;52.530;13.390;2023-04-24T03:51:21;13.50;99.90
19728;DHT22;10015;52.530;13.390;2023-04-24T03:53:50;13.40;99.90
19728;DHT22;10015;52.530;13.390;2023-04-24T03:56:18;13.50;99.90
19728;DHT22;10015;52.530;13.390;2023-04-24T03:58:45;13.50;99.90
19728;DHT22;10015;52.530;13.390;2023-04-24T04:01:11;13.40;99.90
19728;DHT22;10015;52.530;13.390;2023-04-24T04:03:37;13.40;99.90
19728;DHT22;10015;52.530;13.390;2023-04-24T04:06:04;13.40;99.90
19728;DHT22;10015;52.530;13.390;2023-04-24T04:08:30;13.50;99.90
19728;DHT22;10015;52.530;13.390;2023-04-24T04:10:57;13.60;99.90
19728;DHT22;10015;52.530;13.390;2023-04-24T04:13:23;13.40;99.90
19728;DHT22;10015;52.530;13.390;2023-04-24T04:15:49;13.40;99.90
19728;DHT22;10015;52.530;13.390;2023-04-24T04:18:15;13.50;99.90
19728;DHT22;10015;52.530;13.390;2023-04-24T04:20:42;13.60;99.90
19728;DHT22;10015;52.530;13.390;2023-04-24T04:23:09;13.70;99.90
19728;DHT22;10015;52.530;13.390;2023-04-24T04:25:46;13.60;99.90
19728;DHT22;10015;52.530;13.390;2023-04-24T04:28:13;13.60;99.90
19728;DHT22;10015;52.530;13.390;2023-04-24T04:30:39;13.50;99.90
19728;DHT22;10015;52.530;13.390;2023-04-24T04:33:05;13.70;99.90
19728;DHT22;10015;52.530;13.390;2023-04-24T04:35:33;13.80;99.90
19728;DHT22;10015;52.530;13.390;2023-04-24T04:38:00;13.90;99.90
19728;DHT22;10015;52.530;13.390;2023-04-24T04:40:46;14.10;99.90
19728;DHT22;10015;52.530;13.390;2023-04-24T04:43:14;14.10;99.90
19728;DHT22;10015;52.530;13.390;2023-04-24T04:45:47;14.10;99.90
19728;DHT22;10015;52.530;13.390;2023-04-24T04:48:33;14.10;99.90
19728;DHT22;10015;52.530;13.390;2023-04-24T04:51:01;13.90;99.90
19728;DHT22;10015;52.530;13.390;2023-04-24T04:53:28;13.70;99.90
19728;DHT22;10015;52.530;13.390;2023-04-24T04:55:54;13.70;99.90
19728;DHT22;10015;52.530;13.390;2023-04-24T04:58:24;13.70;99.90
19728;DHT22;10015;52.530;13.390;2023-04-24T05:00:54;13.90;99.90
19728;DHT22;10015;52.530;13.390;2023-04-24T05:03:26;13.70;99.90
19728;DHT22;10015;52.530;13.390;2023-04-24T05:05:58;13.60;99.90
19728;DHT22;10015;52.530;13.390;2023-04-24T05:08:24;13.60;99.90
19728;DHT22;10015;52.530;13.390;2023-04-24T05:10:50;13.50;99.90
19728;DHT22;10015;52.530;13.390;2023-04-24T05:13:16;13.60;99.90
19728;DHT22;10015;52.530;13.390;2023-04-24T05:15:42;13.60;99.90
19728;DHT22;10015;52.530;13.390;2023-04-24T05:18:08;13.70;99.90
19728;DHT22;10015;52.530;13.390;2023-04-24T05:20:34;13.70;99.90
19728;DHT22;10015;52.530;13.390;2023-04-24T05:23:01;13.80;99.90
19728;DHT22;10015;52.530;13.390;2023-04-24T05:25:28;13.80;99.90
19728;DHT22;10015;52.530;13.390;2023-04-24T05:28:03;13.90;99.90
19728;DHT22;10015;52.530;13.390;2023-04-24T05:30:30;13.80;99.90
19728;DHT22;10015;52.530;13.390;2023-04-24T05:32:58;14.00;99.90
19728;DHT22;10015;52.530;13.390;2023-04-24T05:35:24;14.20;99.90
19728;DHT22;10015;52.530;13.390;2023-04-24T05:37:50;14.50;99.90
19728;DHT22;10015;52.530;13.390;2023-04-24T05:40:17;14.80;99.90
19728;DHT22;10015;52.530;13.390;2023-04-24T05:42:43;14.90;99.90
19728;DHT22;10015;52.530;13.390;2023-04-24T05:45:09;15.00;99.90
19728;DHT22;10015;52.530;13.390;2023-04-24T05:47:44;15.30;99.90
19728;DHT22;10015;52.530;13.390;2023-04-24T05:50:11;15.70;99.90
19728;DHT22;10015;52.530;13.390;2023-04-24T05:52:37;15.80;99.90
19728;DHT22;10015;52.530;13.390;2023-04-24T05:55:11;15.70;99.90
19728;DHT22;10015;52.530;13.390;2023-04-24T05:57:39;15.80;99.90
19728;DHT22;10015;52.530;13.390;2023-04-24T06:00:06;16.00;99.90
19728;DHT22;10015;52.530;13.390;2023-04-24T06:02:39;15.80;99.90
19728;DHT22;10015;52.530;13.390;2023-04-24T06:05:08;16.00;99.90
19728;DHT22;10015;52.530;13.390;2023-04-24T06:07:35;16.20;99.90
19728;DHT22;10015;52.530;13.390;2023-04-24T06:10:04;16.50;99.90
19728;DHT22;10015;52.530;13.390;2023-04-24T06:12:37;16.70;99.90
19728;DHT22;10015;52.530;13.390;2023-04-24T06:15:08;16.90;99.90
19728;DHT22;10015;52.530;13.390;2023-04-24T06:17:49;17.20;99.90
19728;DHT22;10015;52.530;13.390;2023-04-24T06:20:17;17.50;99.90
19728;DHT22;10015;52.530;13.390;2023-04-24T06:22:45;17.70;99.90
19728;DHT22;10015;52.530;13.390;2023-04-24T06:25:11;17.70;99.90
19728;DHT22;10015;52.530;13.390;2023-04-24T06:27:37;17.80;99.90
19728;DHT22;10015;52.530;13.390;2023-04-24T06:30:04;17.80;99.90
19728;DHT22;10015;52.530;13.390;2023-04-24T06:32:32;17.80;99.90
19728;DHT22;10015;52.530;13.390;2023-04-24T06:34:59;17.80;99.90
19728;DHT22;10015;52.530;13.390;2023-04-24T06:37:25;17.90;99.90
19728;DHT22;10015;52.530;13.390;2023-04-24T06:39:51;18.10;99.90
19728;DHT22;10015;52.530;13.390;2023-04-24T06:42:18;18.50;99.90
19728;DHT22;10015;52.530;13.390;2023-04-24T06:44:48;18.80;99.90
19728;DHT22;10015;52.530;13.390;2023-04-24T06:47:14;18.90;99.90
19728;DHT22;10015;52.530;13.390;2023-04-24T06:49:42;19.40;99.90
19728;DHT22;10015;52.530;13.390;2023-04-24T06:52:08;20.00;99.90
19728;DHT22;10015;52.530;13.390;2023-04-24T06:54:35;20.50;99.90
19728;DHT22;10015;52.530;13.390;2023-04-24T06:57:01;20.80;99.90
19728;DHT22;10015;52.530;13.390;2023-04-24T06:59:29;21.00;99.90
19728;DHT22;10015;52.530;13.390;2023-04-24T07:01:55;21.20;99.90
19728;DHT22;10015;52.530;13.390;2023-04-24T07:04:21;21.50;99.90
19728;DHT22;10015;52.530;13.390;2023-04-24T07:06:48;21.50;99.90
19728;DHT22;10015;52.530;13.390;2023-04-24T07:09:19;21.50;99.90
19728;DHT22;10015;52.530;13.390;2023-04-24T07:11:46;21.60;99.90
19728;DHT22;10015;52.530;13.390;2023-04-24T07:14:12;21.50;99.90
19728;DHT22;10015;52.530;13.390;2023-04-24T07:16:38;21.50;99.90
19728;DHT22;10015;52.530;13.390;2023-04-24T07:19:05;21.60;99.90
19728;DHT22;10015;52.530;13.390;2023-04-24T07:21:31;21.80;99.90
19728;DHT22;10015;52.530;13.390;2023-04-24T07:23:58;22.00;99.90
19728;DHT22;10015;52.530;13.390;2023-04-24T07:26:25;22.00;99.90
19728;DHT22;10015;52.530;13.390;2023-04-24T07:28:52;21.30;99.90
19728;DHT22;10015;52.530;13.390;2023-04-24T07:31:18;21.50;99.90
19728;DHT22;10015;52.530;13.390;2023-04-24T07:33:44;21.80;99.90
19728;DHT22;10015;52.530;13.390;2023-04-24T07:36:11;21.90;99.90
19728;DHT22;10015;52.530;13.390;2023-04-24T07:38:42;21.70;99.90
19728;DHT22;10015;52.530;13.390;2023-04-24T07:41:08;21.50;99.90
19728;DHT22;10015;52.530;13.390;2023-04-24T07:43:34;21.50;99.90
19728;DHT22;10015;52.530;13.390;2023-04-24T07:46:00;21.30;99.90
19728;DHT22;10015;52.530;13.390;2023-04-24T07:48:26;21.40;99.90
19728;DHT22;10015;52.530;13.390;2023-04-24T07:50:53;21.50;99.90
19728;DHT22;10015;52.530;13.390;2023-04-24T07:53:19;21.70;99.90
19728;DHT22;10015;52.530;13.390;2023-04-24T07:55:46;21.70;99.90
19728;DHT22;10015;52.530;13.390;2023-04-24T07:58:12;21.70;99.90
19728;DHT22;10015;52.530;13.390;2023-04-24T08:00:38;21.70;99.90
19728;DHT22;10015;52.530;13.390;2023-04-24T08:03:04;22.00;99.90
19728;DHT22;10015;52.530;13.390;2023-04-24T08:05:30;22.30;99.90
19728;DHT22;10015;52.530;13.390;2023-04-24T08:07:56;22.60;99.90
19728;DHT22;10015;52.530;13.390;2023-04-24T08:10:22;22.80;99.90
19728;DHT22;10015;52.530;13.390;2023-04-24T08:12:49;23.10;99.90
19728;DHT22;10015;52.530;13.390;2023-04-24T08:15:15;23.50;99.90
19728;DHT22;10015;52.530;13.390;2023-04-24T08:17:42;23.60;99.90
19728;DHT22;10015;52.530;13.390;2023-04-24T08:20:10;23.60;99.90
19728;DHT22;10015;52.530;13.390;2023-04-24T08:22:40;23.30;99.90
19728;DHT22;10015;52.530;13.390;2023-04-24T08:25:06;23.20;99.90
19728;DHT22;10015;52.530;13.390;2023-04-24T08:27:33;23.00;99.90
19728;DHT22;10015;52.530;13.390;2023-04-24T08:29:59;23.00;99.90
19728;DHT22;10015;52.530;13.390;2023-04-24T08:32:26;22.90;99.90
19728;DHT22;10015;52.530;13.390;2023-04-24T08:34:56;22.80;99.90
19728;DHT22;10015;52.530;13.390;2023-04-24T08:37:23;22.70;99.90
19728;DHT22;10015;52.530;13.390;2023-04-24T08:39:52;22.60;99.90
19728;DHT22;10015;52.530;13.390;2023-04-24T08:42:19;22.60;99.90
19728;DHT22;10015;52.530;13.390;2023-04-24T08:44:46;22.50;99.90
19728;DHT22;10015;52.530;13.390;2023-04-24T08:47:15;22.20;99.90
19728;DHT22;10015;52.530;13.390;2023-04-24T08:49:41;22.00;99.90
19728;DHT22;10015;52.530;13.390;2023-04-24T08:52:08;21.90;99.90
19728;DHT22;10015;52.530;13.390;2023-04-24T08:54:37;21.60;99.90
19728;DHT22;10015;52.530;13.390;2023-04-24T08:57:07;21.60;99.90
19728;DHT22;10015;52.530;13.390;2023-04-24T08:59:35;21.60;99.90
19728;DHT22;10015;52.530;13.390;2023-04-24T09:02:03;21.60;99.90
19728;DHT22;10015;52.530;13.390;2023-04-24T09:04:30;21.70;99.90
19728;DHT22;10015;52.530;13.390;2023-04-24T09:06:59;21.90;99.90
19728;DHT22;10015;52.530;13.390;2023-04-24T09:09:28;21.90;99.90
19728;DHT22;10015;52.530;13.390;2023-04-24T09:11:56;21.70;99.90
19728;DHT22;10015;52.530;13.390;2023-04-24T09:14:23;21.60;99.90
19728;DHT22;10015;52.530;13.390;2023-04-24T09:16:55;21.40;99.90
19728;DHT22;10015;52.530;13.390;2023-04-24T09:19:21;21.30;99.90
19728;DHT22;10015;52.530;13.390;2023-04-24T09:21:48;21.10;99.90
19728;DHT22;10015;52.530;13.390;2023-04-24T09:24:21;20.70;99.90
19728;DHT22;10015;52.530;13.390;2023-04-24T09:26:57;20.50;99.90
19728;DHT22;10015;52.530;13.390;2023-04-24T09:29:24;20.30;99.90
19728;DHT22;10015;52.530;13.390;2023-04-24T09:31:51;20.30;99.90
19728;DHT22;10015;52.530;13.390;2023-04-24T09:34:25;20.30;99.90
19728;DHT22;10015;52.530;13.390;2023-04-24T09:36:52;20.20;99.90
19728;DHT22;10015;52.530;13.390;2023-04-24T09:39:18;20.10;99.90
19728;DHT22;10015;52.530;13.390;2023-04-24T09:41:50;19.90;99.90
19728;DHT22;10015;52.530;13.390;2023-04-24T09:44:23;19.80;99.90
19728;DHT22;10015;52.530;13.390;2023-04-24T09:46:58;19.70;99.90
19728;DHT22;10015;52.530;13.390;2023-04-24T09:49:28;19.70;99.90
19728;DHT22;10015;52.530;13.390;2023-04-24T09:52:09;19.60;99.90
19728;DHT22;10015;52.530;13.390;2023-04-24T09:54:36;19.60;99.90
19728;DHT22;10015;52.530;13.390;2023-04-24T09:57:02;19.40;99.90
19728;DHT22;10015;52.530;13.390;2023-04-24T09:59:29;19.40;99.90
19728;DHT22;10015;52.530;13.390;2023-04-24T10:01:56;19.30;99.90
19728;DHT22;10015;52.530;13.390;2023-04-24T10:04:25;19.40;99.90
19728;DHT22;10015;52.530;13.390;2023-04-24T10:06:53;19.60;99.90
19728;DHT22;10015;52.530;13.390;2023-04-24T10:09:22;19.90;99.90
19728;DHT22;10015;52.530;13.390;2023-04-24T10:11:50;19.90;99.90
19728;DHT22;10015;52.530;13.390;2023-04-24T10:14:23;20.00;99.90
19728;DHT22;10015;52.530;13.390;2023-04-24T10:16:50;19.60;99.90
19728;DHT22;10015;52.530;13.390;2023-04-24T10:19:16;19.40;99.90
19728;DHT22;10015;52.530;13.390;2023-04-24T10:21:44;19.50;99.90
19728;DHT22;10015;52.530;13.390;2023-04-24T10:24:17;19.50;99.90
19728;DHT22;10015;52.530;13.390;2023-04-24T10:26:45;19.90;99.90
19728;DHT22;10015;52.530;13.390;2023-04-24T10:29:12;20.20;99.90
19728;DHT22;10015;52.530;13.390;2023-04-24T10:31:39;20.40;99.90
19728;DHT22;10015;52.530;13.390;2023-04-24T10:34:06;20.60;99.90
19728;DHT22;10015;52.530;13.390;2023-04-24T10:36:34;20.80;99.90
19728;DHT22;10015;52.530;13.390;2023-04-24T10:39:03;20.70;99.90
19728;DHT22;10015;52.530;13.390;2023-04-24T10:41:32;20.20;99.90
19728;DHT22;10015;52.530;13.390;2023-04-24T10:44:18;19.90;99.90
19728;DHT22;10015;52.530;13.390;2023-04-24T10:46:53;19.90;99.90
19728;DHT22;10015;52.530;13.390;2023-04-24T10:49:28;19.80;99.90
19728;DHT22;10015;52.530;13.390;2023-04-24T10:52:00;19.70;99.90
19728;DHT22;10015;52.530;13.390;2023-04-24T10:59:45;19.00;99.90
19728;DHT22;10015;52.530;13.390;2023-04-24T11:02:14;18.80;99.90
19728;DHT22;10015;52.530;13.390;2023-04-24T11:04:42;18.90;99.90
19728;DHT22;10015;52.530;13.390;2023-04-24T11:07:09;18.90;99.90
19728;DHT22;10015;52.530;13.390;2023-04-24T11:09:36;18.80;99.90
19728;DHT22;10015;52.530;13.390;2023-04-24T11:12:04;19.00;99.90
19728;DHT22;10015;52.530;13.390;2023-04-24T11:17:32;18.50;99.90
19728;DHT22;10015;52.530;13.390;2023-04-24T11:20:16;18.50;99.90
19728;DHT22;10015;52.530;13.390;2023-04-24T11:22:42;18.80;99.90
19728;DHT22;10015;52.530;13.390;2023-04-24T11:25:11;19.10;99.90
19728;DHT22;10015;52.530;13.390;2023-04-24T11:27:46;19.20;99.90
19728;DHT22;10015;52.530;13.390;2023-04-24T11:30:17;19.50;99.90
19728;DHT22;10015;52.530;13.390;2023-04-24T11:32:43;19.40;99.90
19728;DHT22;10015;52.530;13.390;2023-04-24T11:35:20;19.40;99.90
19728;DHT22;10015;52.530;13.390;2023-04-24T11:37:48;19.10;99.90
19728;DHT22;10015;52.530;13.390;2023-04-24T11:40:16;18.60;99.90
19728;DHT22;10015;52.530;13.390;2023-04-24T11:42:44;18.60;99.90
19728;DHT22;10015;52.530;13.390;2023-04-24T11:45:24;18.60;99.90
19728;DHT22;10015;52.530;13.390;2023-04-24T11:47:50;18.50;99.90
19728;DHT22;10015;52.530;13.390;2023-04-24T11:50:18;18.20;99.90
19728;DHT22;10015;52.530;13.390;2023-04-24T11:52:46;17.80;99.90
19728;DHT22;10015;52.530;13.390;2023-04-24T11:57:50;17.80;99.90
19728;DHT22;10015;52.530;13.390;2023-04-24T12:00:20;17.90;99.90
19728;DHT22;10015;52.530;13.390;2023-04-24T12:02:47;18.00;99.90
19728;DHT22;10015;52.530;13.390;2023-04-24T12:05:21;17.90;99.90
19728;DHT22;10015;52.530;13.390;2023-04-24T12:07:47;18.40;99.90
19728;DHT22;10015;52.530;13.390;2023-04-24T12:10:13;18.60;99.90
19728;DHT22;10015;52.530;13.390;2023-04-24T12:12:40;18.80;99.90
19728;DHT22;10015;52.530;13.390;2023-04-24T12:15:08;18.80;99.90
19728;DHT22;10015;52.530;13.390;2023-04-24T12:17:41;18.80;99.90
19728;DHT22;10015;52.530;13.390;2023-04-24T12:20:09;19.00;99.90
19728;DHT22;10015;52.530;13.390;2023-04-24T12:22:52;18.80;99.90
19728;DHT22;10015;52.530;13.390;2023-04-24T12:25:21;18.80;99.90
19728;DHT22;10015;52.530;13.390;2023-04-24T12:30:58;18.80;99.90
19728;DHT22;10015;52.530;13.390;2023-04-24T12:33:36;18.80;99.90
19728;DHT22;10015;52.530;13.390;2023-04-24T12:36:04;18.60;99.90
19728;DHT22;10015;52.530;13.390;2023-04-24T12:38:31;18.70;99.90
19728;DHT22;10015;52.530;13.390;2023-04-24T12:41:11;18.90;99.90
19728;DHT22;10015;52.530;13.390;2023-04-24T12:43:38;19.20;99.90
19728;DHT22;10015;52.530;13.390;2023-04-24T12:46:16;19.20;99.90
19728;DHT22;10015;52.530;13.390;2023-04-24T12:48:42;19.40;99.90
19728;DHT22;10015;52.530;13.390;2023-04-24T12:51:09;19.60;99.90
19728;DHT22;10015;52.530;13.390;2023-04-24T12:53:40;19.70;99.90
19728;DHT22;10015;52.530;13.390;2023-04-24T12:56:11;19.70;99.90
19728;DHT22;10015;52.530;13.390;2023-04-24T12:58:39;19.50;99.90
19728;DHT22;10015;52.530;13.390;2023-04-24T13:01:05;19.50;99.90
19728;DHT22;10015;52.530;13.390;2023-04-24T13:03:32;19.50;99.90
19728;DHT22;10015;52.530;13.390;2023-04-24T13:06:01;19.50;99.90
19728;DHT22;10015;52.530;13.390;2023-04-24T13:08:28;19.60;99.90
19728;DHT22;10015;52.530;13.390;2023-04-24T13:10:54;19.50;99.90
19728;DHT22;10015;52.530;13.390;2023-04-24T13:13:20;19.50;99.90
19728;DHT22;10015;52.530;13.390;2023-04-24T13:15:46;19.60;99.90
19728;DHT22;10015;52.530;13.390;2023-04-24T13:18:12;19.50;99.90
19728;DHT22;10015;52.530;13.390;2023-04-24T13:20:38;19.50;99.90
19728;DHT22;10015;52.530;13.390;2023-04-24T13:23:06;19.60;99.90
19728;DHT22;10015;52.530;13.390;2023-04-24T13:25:35;20.00;99.90
19728;DHT22;10015;52.530;13.390;2023-04-24T13:28:01;20.10;99.90
19728;DHT22;10015;52.530;13.390;2023-04-24T13:30:27;20.00;99.90
19728;DHT22;10015;52.530;13.390;2023-04-24T13:32:53;20.00;99.90
19728;DHT22;10015;52.530;13.390;2023-04-24T13:35:19;19.70;99.90
19728;DHT22;10015;52.530;13.390;2023-04-24T13:37:45;19.50;99.90
19728;DHT22;10015;52.530;13.390;2023-04-24T13:40:11;19.60;99.90
19728;DHT22;10015;52.530;13.390;2023-04-24T13:42:37;19.70;99.90
19728;DHT22;10015;52.530;13.390;2023-04-24T13:45:04;19.80;99.90
19728;DHT22;10015;52.530;13.390;2023-04-24T13:47:30;20.00;99.90
19728;DHT22;10015;52.530;13.390;2023-04-24T13:49:56;19.90;99.90
19728;DHT22;10015;52.530;13.390;2023-04-24T13:52:22;19.90;99.90
19728;DHT22;10015;52.530;13.390;2023-04-24T13:54:48;20.00;99.90
19728;DHT22;10015;52.530;13.390;2023-04-24T13:57:14;19.90;99.90
19728;DHT22;10015;52.530;13.390;2023-04-24T13:59:41;19.60;99.90
19728;DHT22;10015;52.530;13.390;2023-04-24T14:02:07;19.70;99.90
19728;DHT22;10015;52.530;13.390;2023-04-24T14:04:33;19.80;99.30
19728;DHT22;10015;52.530;13.390;2023-04-24T14:06:59;19.50;99.30
19728;DHT22;10015;52.530;13.390;2023-04-24T14:09:25;19.40;99.30
19728;DHT22;10015;52.530;13.390;2023-04-24T14:11:51;19.30;99.50
19728;DHT22;10015;52.530;13.390;2023-04-24T14:14:17;19.40;99.70
19728;DHT22;10015;52.530;13.390;2023-04-24T14:16:43;19.60;99.70
19728;DHT22;10015;52.530;13.390;2023-04-24T14:19:10;19.50;99.20
19728;DHT22;10015;52.530;13.390;2023-04-24T14:21:36;19.40;99.30
19728;DHT22;10015;52.530;13.390;2023-04-24T14:24:02;19.10;99.10
19728;DHT22;10015;52.530;13.390;2023-04-24T14:26:28;19.10;99.20
19728;DHT22;10015;52.530;13.390;2023-04-24T14:28:54;18.90;99.00
19728;DHT22;10015;52.530;13.390;2023-04-24T14:31:20;18.90;98.90
19728;DHT22;10015;52.530;13.390;2023-04-24T14:33:46;18.90;98.80
19728;DHT22;10015;52.530;13.390;2023-04-24T14:36:13;19.00;99.00
19728;DHT22;10015;52.530;13.390;2023-04-24T14:38:39;19.10;98.40
19728;DHT22;10015;52.530;13.390;2023-04-24T14:41:05;19.20;98.20
19728;DHT22;10015;52.530;13.390;2023-04-24T14:43:35;19.30;97.30
19728;DHT22;10015;52.530;13.390;2023-04-24T14:46:02;19.30;97.40
19728;DHT22;10015;52.530;13.390;2023-04-24T14:48:28;19.10;97.00
19728;DHT22;10015;52.530;13.390;2023-04-24T14:50:54;18.90;97.20
19728;DHT22;10015;52.530;13.390;2023-04-24T14:53:20;18.90;97.70
19728;DHT22;10015;52.530;13.390;2023-04-24T14:55:47;19.00;98.00
19728;DHT22;10015;52.530;13.390;2023-04-24T14:58:13;18.80;98.10
19728;DHT22;10015;52.530;13.390;2023-04-24T15:00:38;18.70;98.70
19728;DHT22;10015;52.530;13.390;2023-04-24T15:03:05;18.70;98.60
19728;DHT22;10015;52.530;13.390;2023-04-24T15:05:31;19.00;99.00
19728;DHT22;10015;52.530;13.390;2023-04-24T15:07:57;19.20;98.50
19728;DHT22;10015;52.530;13.390;2023-04-24T15:10:23;19.10;98.60
19728;DHT22;10015;52.530;13.390;2023-04-24T15:12:49;18.70;99.00
19728;DHT22;10015;52.530;13.390;2023-04-24T15:15:15;18.70;98.80
19728;DHT22;10015;52.530;13.390;2023-04-24T15:17:41;18.70;98.40
19728;DHT22;10015;52.530;13.390;2023-04-24T15:20:07;19.00;98.60
19728;DHT22;10015;52.530;13.390;2023-04-24T15:22:34;19.20;98.40
19728;DHT22;10015;52.530;13.390;2023-04-24T15:25:00;19.40;98.60
19728;DHT22;10015;52.530;13.390;2023-04-24T15:27:26;19.40;98.30
19728;DHT22;10015;52.530;13.390;2023-04-24T15:29:52;19.40;98.60
19728;DHT22;10015;52.530;13.390;2023-04-24T15:32:19;19.60;98.60